Burt, Michigan
Current Conditions -  °F | °C
As of 5:15 AM on Thursday 29 Jan 2015 (Local Time) from KHYX Reporting Station
Light Snow Light Snow  
Wind Chill: 18°   Ceiling: 1200
Heat Index: 28°   Visibility: 2mi
Dew Point: 23°   Wind: 12mph
Humidity: 80%   Direction: 150°SSE
Pressure: 29.87"   Gusts: 17mph
Location:  43.24°N, 83.91°W
Report Text: KHYX 291015Z AUTO 15010G15KT 2SM -SN OVC012 M02/M05 A2987 RMK AO2
Loading
Personal Weather Stations






























Interactive Weather Map New forecast layout! Learn more

10-Day Weather Forecast

Advertisements
Track Severe Weather on mobile